createdAt,value
2023-05-05T05:03:06.457Z,45.50
2023-05-05T05:04:07.343Z,45.51
2023-05-05T05:05:07.412Z,45.50
2023-05-05T05:06:06.505Z,45.48
2023-05-05T05:07:06.523Z,45.48
2023-05-05T05:08:06.410Z,45.47
2023-05-05T05:09:07.555Z,45.50
2023-05-05T05:10:06.713Z,45.48
2023-05-05T05:11:06.572Z,45.51
2023-05-05T05:12:07.698Z,45.46
2023-05-05T05:13:06.732Z,45.48
2023-05-05T05:14:07.736Z,45.46
2023-05-05T05:15:06.647Z,45.50
2023-05-05T05:16:07.807Z,45.51
2023-05-05T05:17:06.723Z,45.48
2023-05-05T05:18:06.778Z,45.49
2023-05-05T05:19:07.789Z,45.48
2023-05-05T05:20:06.921Z,45.48
2023-05-05T05:21:06.811Z,45.45
2023-05-05T05:22:07.739Z,45.46
2023-05-05T05:23:06.788Z,45.45
2023-05-05T05:24:06.880Z,45.45
2023-05-05T05:25:07.782Z,45.50
2023-05-05T05:26:07.865Z,45.43
2023-05-05T05:27:09.713Z,45.43
2023-05-05T05:28:10.762Z,45.42
2023-05-05T05:29:06.854Z,45.52
2023-05-05T05:30:07.246Z,45.52
2023-05-05T05:31:06.857Z,45.46
2023-05-05T05:32:07.034Z,45.48
2023-05-05T05:33:06.930Z,45.55
2023-05-05T05:34:06.760Z,45.60
2023-05-05T05:35:06.868Z,45.66
2023-05-05T05:36:06.856Z,45.74
2023-05-05T05:37:07.757Z,45.87
2023-05-05T05:38:06.828Z,45.84
2023-05-05T05:39:06.813Z,45.75
2023-05-05T05:40:07.083Z,45.70
2023-05-05T05:41:06.761Z,45.67
2023-05-05T05:42:06.713Z,45.52
2023-05-05T05:43:07.748Z,45.48
2023-05-05T05:44:07.706Z,45.45
2023-05-05T05:45:06.699Z,45.42
2023-05-05T05:46:09.031Z,45.43
2023-05-05T05:47:06.916Z,45.36
2023-05-05T05:48:08.058Z,45.35
2023-05-05T05:49:06.988Z,45.33
2023-05-05T05:50:08.281Z,45.34
2023-05-05T05:51:07.039Z,45.34
2023-05-05T05:52:07.049Z,45.38
2023-05-05T05:53:07.043Z,45.31
2023-05-05T05:54:08.087Z,45.33
2023-05-05T05:55:07.095Z,45.34
2023-05-05T05:56:08.128Z,45.29
2023-05-05T05:57:07.162Z,45.33
2023-05-05T05:58:07.182Z,45.28
2023-05-05T05:59:07.168Z,45.35
2023-05-05T06:00:07.357Z,45.33
2023-05-05T06:01:07.227Z,45.34
2023-05-05T06:02:07.494Z,45.32
2023-05-05T06:03:07.324Z,45.32
2023-05-05T06:04:07.599Z,45.28
2023-05-05T06:05:07.248Z,45.35
2023-05-05T06:06:08.339Z,45.33
2023-05-05T06:07:08.380Z,45.31
2023-05-05T06:08:07.391Z,45.33
2023-05-05T06:09:07.329Z,45.33
2023-05-05T06:10:25.199Z,45.31
2023-05-05T06:11:08.394Z,45.31
2023-05-05T06:12:07.402Z,45.78
2023-05-05T06:13:07.345Z,45.45
2023-05-05T06:14:08.407Z,45.40
2023-05-05T06:15:07.379Z,45.36
2023-05-05T06:16:07.498Z,45.92
2023-05-05T06:17:07.382Z,46.75
2023-05-05T06:18:07.651Z,46.88
2023-05-05T06:19:07.351Z,46.79
2023-05-05T06:20:08.453Z,46.46
2023-05-05T06:21:07.308Z,46.21
2023-05-05T06:22:07.351Z,45.88
2023-05-05T06:23:07.345Z,45.98
2023-05-05T06:24:07.319Z,45.74
2023-05-05T06:25:07.293Z,45.72
2023-05-05T06:26:08.250Z,45.81
2023-05-05T06:27:07.406Z,45.86
2023-05-05T06:28:07.316Z,45.68
2023-05-05T06:29:07.342Z,45.63
2023-05-05T06:30:07.562Z,45.70
2023-05-05T06:31:07.379Z,45.81
2023-05-05T06:32:07.417Z,45.92
2023-05-05T06:33:07.434Z,45.86
2023-05-05T06:34:08.561Z,45.83
2023-05-05T06:35:07.601Z,45.81
2023-05-05T06:36:07.609Z,45.82
2023-05-05T06:37:08.656Z,45.89
2023-05-05T06:38:07.663Z,45.98
2023-05-05T06:39:08.816Z,46.04
2023-05-05T06:40:08.088Z,46.26
2023-05-05T06:41:07.864Z,46.24
2023-05-05T06:42:08.929Z,46.11
2023-05-05T06:43:07.952Z,46.20
2023-05-05T06:44:09.051Z,46.29
2023-05-05T06:45:08.098Z,46.26
2023-05-05T06:46:08.038Z,46.52
2023-05-05T06:47:09.199Z,46.46
2023-05-05T06:48:08.416Z,46.48
2023-05-05T06:49:08.251Z,46.55
2023-05-05T06:50:08.443Z,46.57
2023-05-05T06:51:08.253Z,46.45
2023-05-05T06:52:08.410Z,46.58
2023-05-05T06:53:08.359Z,46.72
2023-05-05T06:54:08.414Z,46.83
2023-05-05T06:55:08.580Z,47.12
2023-05-05T06:56:08.530Z,47.23
2023-05-05T06:57:08.962Z,47.22
2023-05-05T06:58:08.629Z,47.07
2023-05-05T06:59:08.652Z,46.95
2023-05-05T07:00:08.912Z,47.05
2023-05-05T07:01:08.782Z,46.99
2023-05-05T07:02:09.757Z,47.08
2023-05-05T07:03:08.874Z,47.14
2023-05-05T07:04:08.906Z,47.09
2023-05-05T07:05:10.176Z,47.16
2023-05-05T07:06:08.964Z,47.30
2023-05-05T07:07:08.936Z,47.43
2023-05-05T07:08:09.032Z,47.32
2023-05-05T07:09:08.979Z,47.39
2023-05-05T07:10:09.309Z,47.53
2023-05-05T07:11:09.204Z,47.91
2023-05-05T07:12:09.140Z,47.76
2023-05-05T07:13:09.307Z,47.72
2023-05-05T07:14:10.165Z,47.78
2023-05-05T07:15:26.075Z,47.43
2023-05-05T07:16:10.283Z,47.93
2023-05-05T07:17:09.215Z,47.68
2023-05-05T07:18:09.232Z,47.54
2023-05-05T07:19:10.181Z,48.38
2023-05-05T07:20:10.440Z,48.19
2023-05-05T07:21:09.168Z,48.30
2023-05-05T07:22:10.167Z,48.45
2023-05-05T07:23:10.158Z,48.42
2023-05-05T07:24:09.144Z,48.22
2023-05-05T07:25:10.204Z,48.16
2023-05-05T07:26:09.164Z,47.98
2023-05-05T07:27:09.240Z,47.99
2023-05-05T07:28:10.122Z,47.90
2023-05-05T07:29:09.160Z,47.85
2023-05-05T07:30:13.989Z,47.78
2023-05-05T07:31:10.134Z,47.82
2023-05-05T07:32:09.078Z,47.80
2023-05-05T07:33:10.166Z,47.86
2023-05-05T07:34:10.134Z,47.69
2023-05-05T07:35:09.081Z,47.70
2023-05-05T07:36:09.119Z,47.84
2023-05-05T07:37:09.115Z,47.83
2023-05-05T07:38:10.855Z,48.19
2023-05-05T07:39:09.070Z,48.03
2023-05-05T07:40:10.406Z,47.91
2023-05-05T07:41:09.063Z,48.18
2023-05-05T07:42:10.080Z,48.12
2023-05-05T07:43:09.237Z,48.19
2023-05-05T07:44:09.041Z,47.95
2023-05-05T07:45:08.991Z,47.98
2023-05-05T07:46:09.293Z,48.03
2023-05-05T07:47:08.962Z,48.17
2023-05-05T07:48:09.509Z,48.03
2023-05-05T07:49:09.002Z,48.91
2023-05-05T07:50:09.293Z,48.57
2023-05-05T07:51:09.983Z,48.57
2023-05-05T07:52:08.953Z,48.59
2023-05-05T07:53:14.453Z,48.38
2023-05-05T07:54:10.020Z,48.36
2023-05-05T07:55:09.951Z,48.75
2023-05-05T07:56:09.956Z,48.75
2023-05-05T07:57:09.988Z,48.63
2023-05-05T07:58:08.942Z,48.58
2023-05-05T07:59:09.074Z,49.31
2023-05-05T08:00:09.305Z,48.95
2023-05-05T08:01:08.987Z,48.86
2023-05-05T08:02:09.066Z,48.90
2023-05-05T08:03:11.518Z,48.80
2023-05-05T08:04:09.152Z,49.03
2023-05-05T08:05:09.792Z,49.71
2023-05-05T08:06:09.071Z,49.28
2023-05-05T08:07:09.032Z,49.13
2023-05-05T08:08:09.001Z,48.98
2023-05-05T08:09:09.981Z,49.31
2023-05-05T08:10:09.980Z,49.12
2023-05-05T08:11:10.015Z,49.15
2023-05-05T08:12:08.956Z,49.08
2023-05-05T08:13:10.074Z,49.36
2023-05-05T08:14:08.963Z,49.15
2023-05-05T08:15:10.467Z,49.51
2023-05-05T08:16:09.009Z,50.38
2023-05-05T08:17:08.957Z,49.67
2023-05-05T08:18:08.918Z,49.57
2023-05-05T08:19:21.121Z,49.49
2023-05-05T08:20:11.015Z,49.42
2023-05-05T08:21:09.988Z,48.97
2023-05-05T08:22:08.939Z,48.88
2023-05-05T08:23:08.935Z,48.46
2023-05-05T08:24:09.894Z,48.41
2023-05-05T08:25:09.162Z,48.92
2023-05-05T08:26:08.868Z,48.55
2023-05-05T08:27:08.953Z,48.44
2023-05-05T08:28:08.951Z,48.36
2023-05-05T08:29:08.917Z,48.47
2023-05-05T08:30:08.822Z,49.22
2023-05-05T08:31:09.998Z,48.85
2023-05-05T08:32:08.917Z,48.74
2023-05-05T08:33:08.849Z,48.85
2023-05-05T08:34:08.811Z,48.85
2023-05-05T08:35:10.169Z,49.46
2023-05-05T08:36:08.845Z,49.29
2023-05-05T08:37:09.850Z,49.10
2023-05-05T08:38:08.904Z,48.97
2023-05-05T08:39:08.891Z,48.94
2023-05-05T08:40:08.933Z,49.45
2023-05-05T08:41:08.897Z,49.40
2023-05-05T08:42:09.984Z,49.45
2023-05-05T08:43:09.473Z,49.34
2023-05-05T08:44:09.022Z,49.25
2023-05-05T08:45:09.569Z,49.55
2023-05-05T08:46:09.096Z,49.70
2023-05-05T08:47:09.400Z,49.49
2023-05-05T08:48:09.120Z,49.62
2023-05-05T08:49:10.274Z,49.91
2023-05-05T08:50:10.166Z,49.62
2023-05-05T08:51:09.183Z,49.76
2023-05-05T08:52:09.225Z,49.94
2023-05-05T08:53:09.225Z,49.80
2023-05-05T08:54:10.220Z,49.59
2023-05-05T08:55:10.374Z,49.41
2023-05-05T08:56:09.288Z,49.15
2023-05-05T08:57:10.305Z,48.96
2023-05-05T08:58:10.226Z,48.97
2023-05-05T08:59:10.462Z,48.98
2023-05-05T09:00:09.222Z,49.03
2023-05-05T09:01:09.326Z,49.20
2023-05-05T09:02:09.332Z,49.24
2023-05-05T09:03:09.444Z,49.79
2023-05-05T09:04:09.302Z,49.46
2023-05-05T09:05:09.578Z,49.54
2023-05-05T09:06:10.305Z,49.43
2023-05-05T09:07:09.261Z,49.45
2023-05-05T09:08:10.350Z,50.45
2023-05-05T09:09:09.427Z,50.05
2023-05-05T09:10:09.420Z,49.82
2023-05-05T09:11:10.352Z,49.97
2023-05-05T09:12:09.366Z,49.93
2023-05-05T09:13:09.545Z,50.47
2023-05-05T09:14:09.404Z,50.43
2023-05-05T09:15:10.660Z,50.05
2023-05-05T09:16:09.478Z,50.00
2023-05-05T09:17:09.546Z,50.02
2023-05-05T09:18:10.498Z,50.00
2023-05-05T09:19:09.631Z,51.11
2023-05-05T09:20:09.504Z,50.64
2023-05-05T09:21:10.480Z,50.32
2023-05-05T09:22:10.500Z,50.58
2023-05-05T09:23:10.583Z,50.34
2023-05-05T09:24:09.859Z,50.63
2023-05-05T09:25:09.811Z,50.91
2023-05-05T09:26:10.618Z,50.52
2023-05-05T09:27:09.599Z,50.42
2023-05-05T09:28:09.672Z,50.39
2023-05-05T09:29:09.690Z,50.85
2023-05-05T09:30:09.709Z,50.77
2023-05-05T09:31:09.680Z,50.50
2023-05-05T09:32:10.717Z,50.27
2023-05-05T09:33:09.767Z,50.57
2023-05-05T09:34:09.750Z,50.59
2023-05-05T09:35:09.906Z,50.59
2023-05-05T09:36:09.689Z,50.69
2023-05-05T09:37:10.774Z,51.56
2023-05-05T09:38:09.794Z,51.60
2023-05-05T09:39:09.786Z,51.40
2023-05-05T09:40:09.934Z,51.16
2023-05-05T09:41:09.786Z,51.07
2023-05-05T09:42:09.763Z,51.16
2023-05-05T09:43:09.732Z,51.26
2023-05-05T09:44:10.830Z,51.81
2023-05-05T09:45:09.990Z,51.64
2023-05-05T09:46:10.837Z,51.50
2023-05-05T09:47:25.981Z,51.64
2023-05-05T09:48:10.816Z,51.58
2023-05-05T09:49:09.941Z,52.10
2023-05-05T09:50:10.744Z,51.98
2023-05-05T09:51:10.925Z,51.90
2023-05-05T09:52:09.707Z,52.31
2023-05-05T09:53:09.695Z,52.03
2023-05-05T09:54:10.931Z,51.98
2023-05-05T09:55:09.750Z,51.90
2023-05-05T09:56:09.740Z,51.98
2023-05-05T09:57:09.687Z,51.66
2023-05-05T09:58:10.763Z,51.87
2023-05-05T09:59:09.681Z,52.66
2023-05-05T10:00:10.862Z,52.00
2023-05-05T10:01:10.774Z,52.13
2023-05-05T10:02:09.745Z,51.93
2023-05-05T10:03:09.714Z,51.88
2023-05-05T10:04:09.689Z,52.41
2023-05-05T10:05:09.924Z,53.10
2023-05-05T10:06:10.663Z,52.36
2023-05-05T10:07:09.724Z,52.30
2023-05-05T10:08:09.608Z,52.61
2023-05-05T10:09:10.604Z,52.22
2023-05-05T10:10:10.839Z,52.22
2023-05-05T10:11:09.631Z,52.37
2023-05-05T10:12:10.717Z,52.26
2023-05-05T10:13:09.671Z,52.46
2023-05-05T10:14:09.689Z,52.61
2023-05-05T10:15:09.590Z,52.67
2023-05-05T10:16:10.597Z,52.49
2023-05-05T10:17:09.571Z,52.37
2023-05-05T10:18:09.616Z,52.89
2023-05-05T10:19:09.606Z,52.33
2023-05-05T10:20:10.672Z,52.52
2023-05-05T10:21:09.510Z,52.53
2023-05-05T10:22:09.566Z,52.68
2023-05-05T10:23:09.527Z,52.44
2023-05-05T10:24:10.557Z,52.38
2023-05-05T10:25:09.495Z,52.52
2023-05-05T10:26:10.516Z,53.30
2023-05-05T10:27:11.568Z,53.45
2023-05-05T10:28:10.505Z,53.57
2023-05-05T10:29:10.500Z,53.29
2023-05-05T10:30:10.811Z,53.05
2023-05-05T10:31:24.532Z,52.94
2023-05-05T10:32:33.469Z,52.88
2023-05-05T10:33:30.174Z,52.83
2023-05-05T10:34:10.668Z,52.98
2023-05-05T10:35:10.493Z,52.83
2023-05-05T10:36:09.494Z,52.91
2023-05-05T10:37:09.454Z,52.87
2023-05-05T10:38:09.461Z,52.89
2023-05-05T10:39:09.602Z,53.18
2023-05-05T10:40:09.748Z,52.89
2023-05-05T10:41:10.388Z,52.85
2023-05-05T10:42:10.378Z,53.92
2023-05-05T10:43:10.590Z,53.74
2023-05-05T10:44:09.536Z,53.52
2023-05-05T10:45:09.505Z,54.01
2023-05-05T10:46:09.451Z,54.09
2023-05-05T10:47:09.417Z,54.05
2023-05-05T10:48:09.410Z,53.90
2023-05-05T10:49:12.919Z,53.71
2023-05-05T10:50:09.490Z,53.53
2023-05-05T10:51:09.331Z,53.40
2023-05-05T10:52:09.306Z,53.78
2023-05-05T10:53:09.306Z,53.81
2023-05-05T10:54:10.407Z,53.68
2023-05-05T10:55:09.370Z,53.50
2023-05-05T10:56:09.298Z,53.38
2023-05-05T10:57:10.444Z,53.72
2023-05-05T10:58:09.335Z,53.31
2023-05-05T10:59:10.334Z,53.15
2023-05-05T11:00:09.561Z,53.36
2023-05-05T11:01:09.333Z,53.94
2023-05-05T11:02:09.290Z,53.66
2023-05-05T11:03:09.317Z,53.61
2023-05-05T11:04:10.356Z,53.65
2023-05-05T11:05:10.309Z,53.63
2023-05-05T11:06:09.274Z,53.45
2023-05-05T11:07:13.755Z,53.34
2023-05-05T11:08:09.243Z,53.47
2023-05-05T11:09:09.251Z,53.32
2023-05-05T11:10:09.585Z,53.67
2023-05-05T11:11:09.335Z,53.73
2023-05-05T11:12:09.256Z,53.42
2023-05-05T11:13:10.256Z,53.86
2023-05-05T11:14:09.166Z,54.23
2023-05-05T11:15:10.165Z,53.89
2023-05-05T11:16:09.210Z,53.43
2023-05-05T11:17:09.271Z,53.31
2023-05-05T11:18:10.228Z,53.31
2023-05-05T11:19:10.270Z,53.41
2023-05-05T11:20:09.392Z,53.50
2023-05-05T11:21:10.236Z,53.32
2023-05-05T11:22:09.292Z,53.80
2023-05-05T11:23:09.316Z,53.29
2023-05-05T11:24:10.336Z,53.49
2023-05-05T11:25:09.324Z,53.63
2023-05-05T11:26:09.309Z,53.55
2023-05-05T11:27:10.372Z,53.80
2023-05-05T11:28:10.522Z,53.55
2023-05-05T11:29:10.363Z,53.32
2023-05-05T11:30:09.736Z,53.19
2023-05-05T11:31:09.380Z,54.22
2023-05-05T11:32:10.424Z,53.59
2023-05-05T11:33:09.547Z,53.51
2023-05-05T11:34:10.469Z,53.77
2023-05-05T11:35:09.497Z,53.63
2023-05-05T11:36:10.449Z,53.52
2023-05-05T11:37:10.457Z,53.34
2023-05-05T11:38:10.615Z,53.20
2023-05-05T11:39:09.544Z,53.28
2023-05-05T11:40:10.253Z,53.21
2023-05-05T11:41:10.628Z,53.36
2023-05-05T11:42:11.016Z,53.23
2023-05-05T11:43:10.607Z,53.01
2023-05-05T11:44:10.590Z,53.11
2023-05-05T11:45:09.708Z,53.08
2023-05-05T11:46:09.705Z,52.92
2023-05-05T11:47:10.673Z,52.95
2023-05-05T11:48:10.744Z,52.93
2023-05-05T11:49:10.624Z,52.85
2023-05-05T11:50:09.843Z,52.82
2023-05-05T11:51:09.719Z,52.82
2023-05-05T11:52:09.785Z,52.75
2023-05-05T11:53:10.803Z,52.69
2023-05-05T11:54:10.820Z,52.70
2023-05-05T11:55:09.823Z,52.73
2023-05-05T11:56:09.873Z,52.65
2023-05-05T11:57:09.830Z,52.67
2023-05-05T11:58:09.875Z,52.70
2023-05-05T11:59:10.048Z,52.67
2023-05-05T12:00:10.311Z,52.64
2023-05-05T12:01:10.993Z,52.63
2023-05-05T12:02:10.015Z,52.62
2023-05-05T12:03:10.065Z,52.61
2023-05-05T12:04:10.248Z,52.65
2023-05-05T12:05:11.143Z,52.54
2023-05-05T12:06:10.049Z,52.58
2023-05-05T12:07:11.070Z,52.63
2023-05-05T12:08:10.176Z,52.49
2023-05-05T12:09:10.188Z,52.57
2023-05-05T12:10:10.456Z,52.55
2023-05-05T12:11:10.283Z,52.53
2023-05-05T12:12:10.277Z,52.46
2023-05-05T12:13:11.457Z,52.45
2023-05-05T12:14:10.426Z,52.53
2023-05-05T12:15:10.524Z,52.39
2023-05-05T12:16:11.526Z,52.55
2023-05-05T12:17:10.593Z,52.98
2023-05-05T12:18:11.622Z,52.98
2023-05-05T12:19:10.733Z,52.85
2023-05-05T12:20:11.275Z,52.61
2023-05-05T12:21:10.818Z,52.53
2023-05-05T12:22:10.884Z,52.50
2023-05-05T12:23:11.889Z,52.44
2023-05-05T12:24:11.956Z,52.37
2023-05-05T12:25:11.054Z,52.31
2023-05-05T12:26:11.006Z,52.31
2023-05-05T12:27:11.080Z,52.30
2023-05-05T12:28:12.183Z,52.11
2023-05-05T12:29:11.236Z,52.15
2023-05-05T12:30:11.338Z,52.07
2023-05-05T12:31:11.552Z,52.06
2023-05-05T12:32:11.406Z,52.06
2023-05-05T12:33:12.373Z,52.03
2023-05-05T12:34:12.438Z,51.94
2023-05-05T12:35:11.588Z,51.96
2023-05-05T12:36:11.611Z,51.95
2023-05-05T12:37:12.642Z,51.93
2023-05-05T12:38:11.680Z,51.93
2023-05-05T12:39:11.714Z,51.84
2023-05-05T12:40:12.781Z,51.99
2023-05-05T12:41:11.871Z,51.87
2023-05-05T12:42:12.952Z,51.93
2023-05-05T12:43:12.005Z,51.84
2023-05-05T12:44:12.054Z,51.93
2023-05-05T12:45:13.175Z,51.84
2023-05-05T12:46:13.167Z,51.94
2023-05-05T12:47:12.262Z,51.82
2023-05-05T12:48:12.250Z,51.83
2023-05-05T12:49:12.422Z,51.89
2023-05-05T12:50:13.425Z,51.80
2023-05-05T12:51:13.434Z,51.89
2023-05-05T12:52:12.451Z,51.80
2023-05-05T12:53:12.589Z,51.77
2023-05-05T12:54:12.556Z,51.84
2023-05-05T12:55:12.635Z,51.77
2023-05-05T12:56:12.761Z,51.80
2023-05-05T12:57:12.838Z,51.75
2023-05-05T12:58:12.836Z,51.66
2023-05-05T12:59:12.894Z,51.78
2023-05-05T13:00:12.893Z,51.70
2023-05-05T13:01:12.985Z,51.66
2023-05-05T13:02:13.009Z,51.71
2023-05-05T13:03:13.207Z,51.61
2023-05-05T13:04:13.117Z,51.62
2023-05-05T13:05:13.261Z,51.65
2023-05-05T13:06:13.364Z,51.66
2023-05-05T13:07:13.387Z,51.67
2023-05-05T13:08:13.406Z,51.63
2023-05-05T13:09:14.500Z,51.69
2023-05-05T13:10:14.562Z,51.63
2023-05-05T13:11:13.539Z,51.58
2023-05-05T13:12:14.688Z,51.61
2023-05-05T13:13:13.808Z,51.50
2023-05-05T13:14:14.750Z,51.50
2023-05-05T13:15:14.901Z,51.50
2023-05-05T13:16:14.012Z,51.46
2023-05-05T13:17:15.038Z,51.50
2023-05-05T13:18:15.076Z,51.47
2023-05-05T13:19:14.289Z,51.41
2023-05-05T13:20:15.079Z,51.42
2023-05-05T13:21:14.310Z,51.35
2023-05-05T13:22:15.264Z,51.30
2023-05-05T13:23:14.364Z,51.35
2023-05-05T13:24:26.087Z,51.35
2023-05-05T13:25:15.407Z,51.35
2023-05-05T13:26:14.380Z,51.41
2023-05-05T13:27:15.397Z,51.39
2023-05-05T13:28:14.421Z,51.35
2023-05-05T13:29:15.412Z,51.34
2023-05-05T13:30:15.313Z,51.35
2023-05-05T13:31:14.432Z,51.38
2023-05-05T13:32:14.427Z,51.28
2023-05-05T13:33:14.341Z,51.31
2023-05-05T13:34:15.436Z,51.38
2023-05-05T13:35:16.417Z,51.31
2023-05-05T13:36:14.546Z,51.25
2023-05-05T13:37:14.531Z,51.29
2023-05-05T13:38:15.658Z,51.30
2023-05-05T13:39:15.754Z,51.29
2023-05-05T13:40:14.677Z,51.24
2023-05-05T13:41:15.889Z,51.27
2023-05-05T13:42:15.815Z,51.26
2023-05-05T13:43:15.960Z,51.19
2023-05-05T13:44:15.985Z,51.21
2023-05-05T13:45:15.081Z,51.11
2023-05-05T13:46:20.133Z,51.16
2023-05-05T13:47:15.161Z,51.20
2023-05-05T13:48:16.142Z,51.09
2023-05-05T13:49:15.099Z,51.10
2023-05-05T13:50:15.240Z,51.15
2023-05-05T13:51:15.384Z,51.16
2023-05-05T13:52:15.291Z,51.07
2023-05-05T13:53:16.322Z,51.09
2023-05-05T13:54:16.396Z,51.12
2023-05-05T13:55:16.516Z,51.07
2023-05-05T13:56:15.549Z,51.11
2023-05-05T13:57:15.637Z,51.04
2023-05-05T13:58:15.673Z,51.05
2023-05-05T13:59:15.805Z,51.03
2023-05-05T14:00:16.838Z,51.04
2023-05-05T14:01:17.059Z,50.99
2023-05-05T14:02:15.986Z,51.08
2023-05-05T14:03:16.019Z,51.01
2023-05-05T14:04:16.127Z,51.00
2023-05-05T14:05:16.088Z,51.06
2023-05-05T14:06:16.236Z,50.97
2023-05-05T14:07:16.415Z,50.98
2023-05-05T14:08:16.288Z,50.97
2023-05-05T14:09:16.329Z,51.00
2023-05-05T14:10:16.434Z,51.01
2023-05-05T14:11:17.531Z,50.99
2023-05-05T14:12:16.529Z,51.01
2023-05-05T14:13:17.749Z,51.05
2023-05-05T14:14:17.646Z,51.37
2023-05-05T14:15:17.769Z,51.26
2023-05-05T14:16:16.829Z,51.10
2023-05-05T14:17:16.862Z,51.08
2023-05-05T14:18:17.928Z,51.05
2023-05-05T14:19:16.966Z,51.03
2023-05-05T14:20:17.062Z,50.98
2023-05-05T14:21:18.061Z,50.91
2023-05-05T14:22:17.160Z,50.87
2023-05-05T14:23:18.324Z,51.12
2023-05-05T14:24:17.268Z,51.28
2023-05-05T14:25:17.365Z,51.23
2023-05-05T14:26:17.406Z,51.21
2023-05-05T14:27:18.455Z,51.10
2023-05-05T14:28:18.531Z,51.07
2023-05-05T14:29:17.581Z,50.98
2023-05-05T14:30:18.678Z,50.87
2023-05-05T14:31:17.806Z,50.84
2023-05-05T14:32:17.961Z,50.74
2023-05-05T14:33:17.772Z,50.81
2023-05-05T14:34:17.894Z,50.72
2023-05-05T14:35:17.873Z,50.67
2023-05-05T14:36:19.020Z,50.74
2023-05-05T14:37:19.019Z,50.65
2023-05-05T14:38:18.064Z,50.65
2023-05-05T14:39:19.182Z,50.64
2023-05-05T14:40:18.203Z,50.64
2023-05-05T14:41:19.200Z,50.61
2023-05-05T14:42:18.301Z,50.67
2023-05-05T14:43:18.396Z,50.66
2023-05-05T14:44:18.416Z,50.59
2023-05-05T14:45:18.485Z,50.59
2023-05-05T14:46:18.591Z,50.52
2023-05-05T14:47:18.553Z,50.46
2023-05-05T14:48:18.572Z,50.50
2023-05-05T14:49:18.630Z,50.47
2023-05-05T14:50:18.784Z,50.46
2023-05-05T14:51:19.875Z,50.44
2023-05-05T14:52:18.809Z,50.32
2023-05-05T14:53:19.901Z,50.47
2023-05-05T14:54:27.791Z,50.42
2023-05-05T14:55:20.014Z,50.41
2023-05-05T14:56:19.885Z,50.42
2023-05-05T14:57:18.951Z,50.45
2023-05-05T14:58:18.862Z,50.39
2023-05-05T14:59:18.950Z,50.38
2023-05-05T15:00:18.955Z,50.34
2023-05-05T15:01:18.901Z,50.37
2023-05-05T15:02:19.945Z,50.38
2023-05-05T15:03:18.914Z,50.30
2023-05-05T15:04:19.837Z,50.33
2023-05-05T15:05:18.896Z,50.36
2023-05-05T15:06:18.938Z,50.32
2023-05-05T15:07:18.884Z,50.30
2023-05-05T15:08:18.866Z,50.24
2023-05-05T15:09:19.881Z,50.30
2023-05-05T15:10:21.746Z,50.32
2023-05-05T15:11:19.013Z,50.28
2023-05-05T15:12:18.948Z,50.41
2023-05-05T15:13:19.217Z,50.43
2023-05-05T15:14:18.957Z,50.42
2023-05-05T15:15:19.899Z,50.31
2023-05-05T15:16:19.005Z,50.43
2023-05-05T15:17:18.963Z,50.63
2023-05-05T15:18:18.926Z,50.52
2023-05-05T15:19:19.850Z,50.55
2023-05-05T15:20:19.902Z,50.50
2023-05-05T15:21:18.867Z,50.44
2023-05-05T15:22:18.931Z,50.39
2023-05-05T15:23:18.928Z,50.39
2023-05-05T15:24:18.824Z,50.37
2023-05-05T15:25:19.811Z,50.36
2023-05-05T15:26:19.846Z,50.28
2023-05-05T15:27:19.095Z,50.36
2023-05-05T15:28:18.888Z,50.30
2023-05-05T15:29:18.864Z,50.31
